Time;durP1;ratioP1;P1;durP2;ratioP2;P2;SDS_P1;SDS_P2;PMS_P1;PMS_P2;Temp;Humidity;BMP_temperature;BMP_pressure;BME280_temperature;BME280_humidity;BME280_pressure;Samples;Min_cycle;Max_cycle;Signal;HPM_P1;HPM_P2
2021/03/13 00:00:57;;;;;;;3.22;1.10;;;20.40;37.00;;;;;;5076071;28;20038;-59
2021/03/13 00:03:22;;;;;;;3.58;0.85;;;20.40;37.00;;;;;;5076027;28;20028;-60
2021/03/13 00:05:48;;;;;;;2.90;0.93;;;20.40;37.00;;;;;;5075909;28;20035;-59
2021/03/13 00:08:14;;;;;;;2.08;0.90;;;20.40;37.00;;;;;;5075965;28;20253;-60
2021/03/13 00:10:43;;;;;;;2.03;0.70;;;20.40;37.00;;;;;;5075908;28;20039;-59
2021/03/13 00:13:09;;;;;;;1.92;0.80;;;20.40;37.00;;;;;;5075468;28;20021;-60
2021/03/13 00:15:36;;;;;;;3.00;0.82;;;20.40;37.00;;;;;;5075951;28;20036;-59
2021/03/13 00:18:04;;;;;;;3.50;0.93;;;20.40;37.00;;;;;;5075789;28;20044;-59
2021/03/13 00:20:32;;;;;;;4.30;0.85;;;20.40;37.00;;;;;;5075860;28;20039;-59
2021/03/13 00:22:58;;;;;;;1.77;0.65;;;20.40;37.00;;;;;;5075719;28;20111;-59
2021/03/13 00:25:26;;;;;;;2.90;0.80;;;20.40;37.00;;;;;;5075810;28;20353;-60
2021/03/13 00:27:52;;;;;;;3.78;0.90;;;20.40;37.00;;;;;;5075701;28;20491;-60
2021/03/13 00:30:21;;;;;;;3.45;0.98;;;20.30;36.90;;;;;;5075349;28;20040;-60
2021/03/13 00:32:49;;;;;;;3.03;0.90;;;20.30;37.00;;;;;;5075197;28;20020;-60
2021/03/13 00:35:16;;;;;;;2.45;0.85;;;20.30;37.00;;;;;;5075024;28;20371;-60
2021/03/13 00:37:41;;;;;;;2.33;0.85;;;20.30;36.90;;;;;;5075327;28;20028;-59
2021/03/13 00:40:10;;;;;;;3.75;0.75;;;20.30;36.90;;;;;;5074477;28;20024;-59
2021/03/13 00:42:36;;;;;;;3.10;0.98;;;20.30;37.00;;;;;;5075118;28;20408;-60
2021/03/13 00:45:04;;;;;;;2.30;0.77;;;20.30;36.90;;;;;;5075351;28;20024;-60
2021/03/13 00:47:30;;;;;;;2.95;0.95;;;20.30;36.90;;;;;;5075147;28;20039;-60
2021/03/13 00:49:55;;;;;;;2.42;0.73;;;20.30;36.90;;;;;;5075076;28;20028;-60
2021/03/13 00:52:21;;;;;;;2.47;0.60;;;20.30;36.90;;;;;;5073873;28;20071;-60
2021/03/13 00:54:46;;;;;;;3.05;0.85;;;20.30;37.00;;;;;;5075118;28;20024;-59
2021/03/13 00:57:12;;;;;;;4.20;1.00;;;20.30;37.00;;;;;;5075364;28;20368;-59
2021/03/13 00:59:37;;;;;;;3.85;0.82;;;20.30;37.00;;;;;;5077734;28;20468;-59
2021/03/13 01:02:03;;;;;;;2.85;0.80;;;20.30;37.00;;;;;;5075801;28;20380;-60
2021/03/13 01:04:29;;;;;;;2.67;0.80;;;20.30;37.00;;;;;;5076282;28;20380;-60
2021/03/13 01:06:54;;;;;;;2.75;0.75;;;20.20;37.00;;;;;;5074720;28;20037;-60
2021/03/13 01:09:21;;;;;;;1.63;0.77;;;20.30;37.00;;;;;;5074752;28;20024;-60
2021/03/13 01:11:47;;;;;;;2.15;0.90;;;20.30;37.00;;;;;;5074772;28;20399;-59
2021/03/13 01:14:12;;;;;;;2.90;0.90;;;20.20;37.00;;;;;;5074422;28;20027;-59
2021/03/13 01:16:38;;;;;;;2.70;0.95;;;20.20;37.00;;;;;;5074482;28;20028;-60
2021/03/13 01:19:04;;;;;;;2.00;0.85;;;20.20;37.00;;;;;;5074461;28;20044;-60
2021/03/13 01:21:30;;;;;;;2.40;0.88;;;20.20;37.00;;;;;;5074401;28;20074;-59
2021/03/13 01:23:55;;;;;;;2.63;0.93;;;20.20;37.00;;;;;;5074411;28;20052;-60
2021/03/13 01:26:21;;;;;;;4.43;1.33;;;20.20;37.00;;;;;;5074460;28;20310;-59
2021/03/13 01:28:47;;;;;;;3.38;1.02;;;20.20;37.00;;;;;;5074378;28;20531;-60
2021/03/13 01:31:12;;;;;;;3.40;0.80;;;20.20;37.00;;;;;;5074104;28;20051;-60
2021/03/13 01:33:38;;;;;;;2.67;0.90;;;20.20;37.00;;;;;;5074351;28;20052;-60
2021/03/13 01:36:04;;;;;;;2.15;0.95;;;20.20;37.00;;;;;;5074378;28;20025;-60
2021/03/13 01:38:30;;;;;;;3.00;0.95;;;20.10;37.00;;;;;;5074232;28;20094;-60
2021/03/13 01:40:56;;;;;;;4.75;1.00;;;20.20;37.00;;;;;;5074323;28;20024;-60
2021/03/13 01:43:21;;;;;;;2.63;0.77;;;20.20;37.00;;;;;;5074350;28;20028;-60
2021/03/13 01:45:47;;;;;;;2.35;0.80;;;20.20;37.00;;;;;;5074118;28;20028;-60
2021/03/13 01:48:13;;;;;;;4.20;1.00;;;20.10;37.00;;;;;;5073965;28;20021;-60
2021/03/13 01:50:39;;;;;;;1.98;0.70;;;20.20;37.00;;;;;;5073418;28;20028;-60
2021/03/13 01:53:04;;;;;;;2.75;0.90;;;20.20;37.10;;;;;;5073989;28;20484;-59
2021/03/13 01:55:30;;;;;;;1.98;0.75;;;20.20;37.10;;;;;;5074158;28;20098;-60
2021/03/13 01:57:56;;;;;;;2.80;0.73;;;20.20;37.00;;;;;;5074664;28;20479;-60
2021/03/13 02:00:24;;;;;;;2.28;0.80;;;20.10;37.10;;;;;;5074400;28;20106;-61
2021/03/13 02:02:49;;;;;;;4.57;0.90;;;20.10;37.00;;;;;;5074123;28;20119;-60
2021/03/13 02:05:26;;;;;;;3.25;0.93;;;20.10;37.10;;;;;;5074093;28;20111;-60
2021/03/13 02:08:04;;;;;;;3.92;0.90;;;20.10;37.10;;;;;;5073903;28;20053;-60
2021/03/13 02:11:00;;;;;;;3.22;0.77;;;20.10;37.10;;;;;;5073989;28;20060;-60
2021/03/13 02:13:37;;;;;;;3.83;0.90;;;20.10;37.10;;;;;;5073904;28;20051;-59
2021/03/13 02:16:19;;;;;;;4.88;1.40;;;20.10;37.10;;;;;;5073461;28;20023;-59
2021/03/13 02:18:53;;;;;;;2.33;1.00;;;20.10;37.10;;;;;;5073505;28;20067;-59
2021/03/13 02:21:21;;;;;;;;;;;20.00;37.10;;;;;;5074087;28;20042;-59
2021/03/13 02:24:05;;;;;;;3.35;0.98;;;20.10;37.10;;;;;;5073819;28;19904;-58
2021/03/13 02:26:55;;;;;;;2.70;0.90;;;20.10;37.20;;;;;;5073665;28;20029;-59
2021/03/13 02:29:42;;;;;;;2.17;0.82;;;20.10;37.20;;;;;;5072158;28;20071;-59
2021/03/13 02:32:16;;;;;;;2.50;0.80;;;20.00;37.10;;;;;;5073539;28;20068;-58
2021/03/13 02:34:43;;;;;;;3.60;0.90;;;20.10;37.10;;;;;;5073773;28;20025;-58
2021/03/13 02:37:19;;;;;;;4.47;1.20;;;20.00;37.20;;;;;;5073396;28;20039;-58
2021/03/13 02:39:46;;;;;;;2.33;0.82;;;20.00;37.20;;;;;;5073354;28;20032;-60
2021/03/13 02:42:13;;;;;;;3.47;1.00;;;20.00;37.20;;;;;;5073467;28;20411;-59
2021/03/13 02:44:40;;;;;;;3.67;0.90;;;20.00;37.20;;;;;;5073719;28;20112;-59
2021/03/13 02:47:07;;;;;;;3.15;0.90;;;20.10;37.20;;;;;;5073464;28;20107;-59
2021/03/13 02:49:35;;;;;;;3.42;0.80;;;20.00;37.20;;;;;;5073538;28;20029;-59
2021/03/13 02:52:02;;;;;;;3.75;0.90;;;20.00;37.20;;;;;;5073369;28;20036;-59
2021/03/13 02:54:30;;;;;;;3.17;0.98;;;20.00;37.30;;;;;;5073228;28;20121;-59
2021/03/13 02:56:57;;;;;;;2.15;0.77;;;20.00;37.20;;;;;;5072973;28;20092;-58
2021/03/13 02:59:23;;;;;;;1.92;0.80;;;20.00;37.20;;;;;;5073150;28;20025;-58
2021/03/13 03:01:52;;;;;;;1.58;0.68;;;20.00;37.20;;;;;;5073402;28;20028;-58
2021/03/13 03:04:19;;;;;;;2.92;0.85;;;20.00;37.20;;;;;;5076406;28;20032;-58
2021/03/13 03:06:48;;;;;;;4.00;0.90;;;20.00;37.30;;;;;;5077309;28;20039;-58
2021/03/13 03:09:14;;;;;;;3.85;1.17;;;20.00;37.30;;;;;;5077299;28;20059;-58
2021/03/13 03:11:45;;;;;;;3.63;1.10;;;20.00;37.30;;;;;;5077680;28;20068;-59
2021/03/13 03:14:12;;;;;;;3.92;1.10;;;20.00;37.30;;;;;;5077223;28;20017;-59
2021/03/13 03:16:39;;;;;;;1.13;0.60;;;20.00;37.30;;;;;;5077206;28;20032;-59
2021/03/13 03:19:06;;;;;;;3.20;0.90;;;20.00;37.30;;;;;;5076805;28;20036;-59
2021/03/13 03:21:34;;;;;;;2.90;0.80;;;20.00;37.30;;;;;;5076776;28;20021;-58
2021/03/13 03:24:01;;;;;;;4.40;1.00;;;20.00;37.40;;;;;;5075645;28;20075;-58
2021/03/13 03:26:26;;;;;;;3.38;0.90;;;20.00;37.30;;;;;;5076927;28;20029;-58
2021/03/13 03:28:52;;;;;;;2.97;0.98;;;20.00;37.40;;;;;;5076919;28;20028;-59
2021/03/13 03:31:17;;;;;;;3.45;0.80;;;20.00;37.30;;;;;;5092232;28;20497;-58
2021/03/13 03:33:43;;;;;;;2.17;0.70;;;20.00;37.40;;;;;;5076744;28;20020;-59
2021/03/13 03:36:10;;;;;;;2.92;0.75;;;20.00;37.40;;;;;;5076301;28;20028;-59
2021/03/13 03:38:36;;;;;;;3.33;0.85;;;20.00;37.40;;;;;;5075934;28;20028;-59
2021/03/13 03:41:02;;;;;;;3.15;0.80;;;19.90;37.40;;;;;;5076046;28;20020;-58
2021/03/13 03:43:36;;;;;;;2.95;0.93;;;19.90;37.40;;;;;;5076308;28;20027;-58
2021/03/13 03:46:04;;;;;;;2.65;0.85;;;19.90;37.40;;;;;;5076584;28;20035;-58
2021/03/13 03:48:32;;;;;;;2.35;0.82;;;19.90;37.40;;;;;;5076550;28;20043;-58
2021/03/13 03:50:58;;;;;;;3.42;1.10;;;19.90;37.40;;;;;;5076570;28;20032;-58
2021/03/13 03:53:27;;;;;;;3.78;1.00;;;19.90;37.40;;;;;;5076739;28;20545;-58
2021/03/13 03:55:55;;;;;;;2.03;0.70;;;19.90;37.40;;;;;;5076770;28;20060;-58
2021/03/13 03:58:32;;;;;;;1.77;0.75;;;19.90;37.40;;;;;;5076858;28;20025;-58
2021/03/13 04:00:59;;;;;;;2.53;0.77;;;19.90;37.40;;;;;;5076691;28;20036;-58
2021/03/13 04:03:25;;;;;;;3.78;0.80;;;20.00;37.50;;;;;;5076212;28;20020;-59
2021/03/13 04:05:51;;;;;;;3.10;0.80;;;19.90;37.50;;;;;;5075963;28;20025;-59
2021/03/13 04:08:18;;;;;;;2.65;0.63;;;19.90;37.40;;;;;;5075780;28;20547;-58
2021/03/13 04:10:46;;;;;;;3.72;0.90;;;19.90;37.50;;;;;;5076069;28;20068;-58
2021/03/13 04:13:13;;;;;;;1.75;0.65;;;19.90;37.50;;;;;;5076298;28;20028;-58
2021/03/13 04:15:46;;;;;;;2.55;0.77;;;19.90;37.50;;;;;;5075769;28;20472;-59
2021/03/13 04:18:13;;;;;;;2.88;0.88;;;19.90;37.50;;;;;;5076054;28;20512;-59
2021/03/13 04:20:39;;;;;;;2.08;0.75;;;19.90;37.50;;;;;;5076006;28;20100;-59
2021/03/13 04:23:06;;;;;;;2.63;0.60;;;19.90;37.50;;;;;;5075838;28;20515;-58
2021/03/13 04:25:34;;;;;;;2.40;0.80;;;19.90;37.50;;;;;;5076012;28;20052;-59
2021/03/13 04:28:00;;;;;;;2.33;0.70;;;19.90;37.50;;;;;;5075777;28;20028;-60
2021/03/13 04:30:26;;;;;;;1.48;0.63;;;19.90;37.50;;;;;;5091073;28;20036;-59
2021/03/13 04:32:55;;;;;;;0.93;0.50;;;19.90;37.50;;;;;;5075868;28;20025;-59
2021/03/13 04:35:23;;;;;;;1.48;0.50;;;19.90;37.50;;;;;;5075601;28;20024;-59
2021/03/13 04:37:49;;;;;;;2.25;0.60;;;19.90;37.50;;;;;;5075659;28;20111;-59
2021/03/13 04:40:16;;;;;;;1.42;0.52;;;19.80;37.50;;;;;;5075476;28;20033;-59
2021/03/13 04:42:43;;;;;;;1.70;0.65;;;19.80;37.60;;;;;;5075770;28;20472;-59
2021/03/13 04:45:10;;;;;;;2.90;0.80;;;19.80;37.50;;;;;;5075887;28;20062;-59
2021/03/13 04:47:40;;;;;;;3.08;0.73;;;19.90;37.60;;;;;;5075286;28;20017;-60
2021/03/13 04:50:07;;;;;;;2.80;0.90;;;19.90;37.60;;;;;;5075288;28;20028;-59
2021/03/13 04:52:32;;;;;;;2.30;0.80;;;19.90;37.60;;;;;;5075073;28;20036;-59
2021/03/13 04:54:58;;;;;;;2.38;0.77;;;19.80;37.60;;;;;;5075341;28;20028;-59
2021/03/13 04:57:23;;;;;;;2.72;0.63;;;19.80;37.60;;;;;;5075181;28;20063;-61
2021/03/13 04:59:50;;;;;;;1.58;0.60;;;19.80;37.60;;;;;;5075222;28;20025;-59
2021/03/13 05:02:16;;;;;;;2.28;0.60;;;19.90;37.60;;;;;;5079435;28;20024;-59
2021/03/13 05:04:41;;;;;;;2.13;0.70;;;19.80;37.60;;;;;;5077890;28;20077;-59
2021/03/13 05:07:07;;;;;;;1.48;0.55;;;19.80;37.60;;;;;;5075006;28;20039;-60
2021/03/13 05:09:32;;;;;;;1.63;0.50;;;19.80;37.60;;;;;;5075232;28;20028;-60
2021/03/13 05:11:59;;;;;;;1.17;0.60;;;19.80;37.60;;;;;;5074618;28;20451;-59
2021/03/13 05:14:24;;;;;;;2.47;0.63;;;19.90;37.50;;;;;;5074997;28;20384;-59
2021/03/13 05:16:50;;;;;;;2.72;0.95;;;19.90;37.50;;;;;;5074937;28;20032;-59
2021/03/13 05:19:15;;;;;;;1.67;0.50;;;19.90;37.50;;;;;;5074566;28;20043;-59
2021/03/13 05:21:41;;;;;;;1.55;0.55;;;20.00;37.40;;;;;;5074863;28;20099;-59
2021/03/13 05:24:07;;;;;;;0.88;0.40;;;20.00;37.40;;;;;;5074864;28;20025;-59
2021/03/13 05:26:32;;;;;;;2.75;0.85;;;20.00;37.30;;;;;;5072833;28;20032;-59
2021/03/13 05:28:58;;;;;;;2.10;0.60;;;20.00;37.30;;;;;;5074728;28;20416;-59
2021/03/13 05:31:23;;;;;;;2.15;0.60;;;20.10;37.20;;;;;;5089731;28;20063;-59
2021/03/13 05:33:49;;;;;;;2.08;0.70;;;20.10;37.20;;;;;;5074528;28;20415;-59
2021/03/13 05:36:14;;;;;;;2.15;0.70;;;20.10;37.20;;;;;;5078798;28;20028;-59
2021/03/13 05:38:40;;;;;;;4.00;1.08;;;20.20;37.10;;;;;;5077813;28;20048;-59
2021/03/13 05:41:06;;;;;;;1.67;0.68;;;20.20;37.10;;;;;;5074771;28;20483;-59
2021/03/13 05:43:33;;;;;;;1.00;0.60;;;20.20;37.10;;;;;;5074670;28;20093;-59
2021/03/13 05:46:05;;;;;;;2.30;0.77;;;20.20;37.10;;;;;;5077381;28;20361;-60
2021/03/13 05:48:33;;;;;;;1.10;0.55;;;20.30;37.10;;;;;;5077582;28;20021;-59
2021/03/13 05:50:59;;;;;;;3.00;0.77;;;20.30;37.10;;;;;;5074156;28;20396;-59
2021/03/13 05:53:25;;;;;;;2.90;0.88;;;20.30;37.10;;;;;;5074233;28;20455;-60
2021/03/13 05:55:54;;;;;;;1.63;0.70;;;20.30;37.10;;;;;;5074397;28;20078;-59
2021/03/13 05:58:23;;;;;;;2.42;0.63;;;20.30;37.10;;;;;;5074348;28;20035;-59
2021/03/13 06:00:50;;;;;;;2.22;0.65;;;20.30;37.00;;;;;;5074348;28;20019;-59
2021/03/13 06:03:16;;;;;;;1.23;0.50;;;20.30;37.10;;;;;;5074446;28;20488;-60
2021/03/13 06:05:47;;;;;;;0.80;0.32;;;20.40;37.00;;;;;;5075029;28;20033;-59
2021/03/13 06:08:15;;;;;;;1.58;0.50;;;20.30;37.10;;;;;;5077265;28;20029;-60
2021/03/13 06:10:40;;;;;;;1.70;0.60;;;20.40;37.00;;;;;;5081361;28;20082;-59
2021/03/13 06:13:07;;;;;;;1.95;0.52;;;20.40;37.00;;;;;;5074578;28;20029;-59
2021/03/13 06:15:32;;;;;;;1.27;0.40;;;20.40;37.00;;;;;;5073922;28;20086;-59
2021/03/13 06:18:00;;;;;;;1.83;0.43;;;20.50;37.00;;;;;;5073699;28;20040;-60
2021/03/13 06:20:34;;;;;;;1.70;0.60;;;20.40;37.00;;;;;;5074029;28;20033;-60
2021/03/13 06:23:03;;;;;;;3.03;0.80;;;20.50;37.00;;;;;;5073277;28;20053;-60
2021/03/13 06:25:30;;;;;;;0.65;0.40;;;20.50;37.10;;;;;;5074010;28;20013;-60
2021/03/13 06:28:06;;;;;;;2.47;0.70;;;20.50;37.00;;;;;;5073665;28;20531;-60
2021/03/13 06:30:40;;;;;;;1.08;0.40;;;20.50;37.00;;;;;;5074038;28;20119;-60
2021/03/13 06:33:27;;;;;;;3.17;0.90;;;20.50;37.00;;;;;;5074258;28;20384;-60
2021/03/13 06:35:57;;;;;;;1.65;0.50;;;20.50;37.00;;;;;;5073499;28;20029;-60
2021/03/13 06:38:28;;;;;;;1.90;0.80;;;20.50;37.00;;;;;;5072742;28;20029;-60
2021/03/13 06:40:56;;;;;;;2.25;0.60;;;20.50;37.00;;;;;;5073466;28;20073;-60
2021/03/13 06:43:29;;;;;;;2.40;0.40;;;20.50;37.00;;;;;;5073747;28;20051;-60
2021/03/13 06:46:07;;;;;;;1.73;0.52;;;20.60;37.00;;;;;;5073358;28;20032;-59
2021/03/13 06:48:37;;;;;;;1.88;0.70;;;20.50;37.00;;;;;;5073080;28;20107;-60
2021/03/13 06:51:19;;;;;;;1.60;0.60;;;20.50;37.00;;;;;;5073330;28;20086;-60
2021/03/13 06:53:57;;;;;;;1.08;0.40;;;20.60;37.00;;;;;;5073174;28;20464;-59
2021/03/13 06:56:26;;;;;;;1.65;0.52;;;20.60;37.00;;;;;;5073529;28;20024;-60
2021/03/13 06:58:51;;;;;;;1.45;0.40;;;20.60;37.00;;;;;;5073307;28;20047;-60
2021/03/13 07:01:29;;;;;;;1.15;0.50;;;20.60;37.00;;;;;;5073015;28;20058;-60
2021/03/13 07:03:55;;;;;;;2.05;0.60;;;20.60;37.00;;;;;;5073345;28;20029;-60
2021/03/13 07:06:21;;;;;;;1.50;0.70;;;20.70;37.00;;;;;;5072961;28;20029;-60
2021/03/13 07:08:52;;;;;;;1.65;0.43;;;20.70;37.00;;;;;;5072783;28;20118;-60
2021/03/13 07:11:22;;;;;;;2.03;0.50;;;20.70;37.00;;;;;;5073148;28;20033;-60
2021/03/13 07:13:54;;;;;;;2.40;0.60;;;20.70;37.00;;;;;;5072974;28;20021;-60
2021/03/13 07:16:36;;;;;;;1.65;0.60;;;20.70;37.00;;;;;;5072988;28;20035;-59
2021/03/13 07:19:10;;;;;;;0.90;0.50;;;20.70;37.00;;;;;;5072646;28;20080;-60
2021/03/13 07:21:38;;;;;;;0.60;0.43;;;20.70;37.00;;;;;;5073097;28;20029;-60
2021/03/13 07:24:04;;;;;;;0.95;0.43;;;20.70;37.00;;;;;;5072731;28;20024;-60
2021/03/13 07:26:37;;;;;;;0.85;0.43;;;20.70;37.00;;;;;;5072674;28;20480;-60
2021/03/13 07:29:05;;;;;;;0.90;0.30;;;20.80;37.00;;;;;;5073029;28;20020;-60
2021/03/13 07:31:35;;;;;;;1.65;0.38;;;20.70;37.00;;;;;;5072807;28;20115;-60
2021/03/13 07:34:03;;;;;;;2.42;0.60;;;20.80;37.00;;;;;;5072695;28;20020;-60
2021/03/13 07:36:32;;;;;;;0.63;0.30;;;20.80;36.90;;;;;;5072762;28;20450;-60
2021/03/13 07:39:02;;;;;;;2.47;0.77;;;20.80;36.90;;;;;;5072776;28;20472;-61
2021/03/13 07:41:30;;;;;;;0.60;0.30;;;20.80;37.10;;;;;;5072629;28;20568;-60
2021/03/13 07:43:55;;;;;;;1.45;0.50;;;20.80;37.00;;;;;;5072580;28;20078;-59
2021/03/13 07:46:22;;;;;;;0.88;0.50;;;20.80;37.00;;;;;;5072724;28;20036;-61
2021/03/13 07:48:49;;;;;;;0.77;0.40;;;20.80;37.10;;;;;;5073363;28;20054;-60
2021/03/13 07:51:14;;;;;;;1.48;0.50;;;20.70;37.10;;;;;;5076109;28;20034;-59
2021/03/13 07:53:42;;;;;;;2.17;0.88;;;20.80;37.20;;;;;;5076343;28;20054;-60
2021/03/13 07:56:14;;;;;;;1.42;0.40;;;20.70;37.20;;;;;;5076249;28;20025;-60
2021/03/13 07:58:40;;;;;;;2.42;0.40;;;20.80;37.20;;;;;;5076090;28;20472;-60
2021/03/13 08:01:06;;;;;;;1.33;0.50;;;20.70;37.20;;;;;;5076010;28;20371;-60
2021/03/13 08:03:37;;;;;;;1.45;0.45;;;20.70;37.20;;;;;;5076110;28;20020;-60
2021/03/13 08:06:05;;;;;;;0.82;0.50;;;20.80;37.20;;;;;;5076269;28;20099;-60
2021/03/13 08:08:45;;;;;;;3.17;0.70;;;20.80;37.20;;;;;;5076357;28;20020;-60
2021/03/13 08:11:20;;;;;;;1.05;0.40;;;20.80;37.20;;;;;;5075815;28;20039;-60
2021/03/13 08:13:54;;;;;;;1.35;0.52;;;20.80;37.20;;;;;;5075683;28;20496;-60
2021/03/13 08:16:35;;;;;;;;;;;20.80;37.20;;;;;;5076307;28;20133;-59
2021/03/13 08:19:01;;;;;;;1.27;0.52;;;20.80;37.20;;;;;;5075456;28;20382;-59
2021/03/13 08:21:27;;;;;;;2.72;0.60;;;20.80;37.20;;;;;;5075924;28;20081;-58
2021/03/13 08:23:57;;;;;;;1.25;0.40;;;20.80;37.20;;;;;;5075692;28;20025;-59
2021/03/13 08:26:43;;;;;;;1.40;0.50;;;20.90;37.20;;;;;;5075696;28;20464;-59
2021/03/13 08:29:10;;;;;;;0.73;0.38;;;20.80;37.20;;;;;;5075432;28;20033;-59
2021/03/13 08:31:46;;;;;;;1.67;0.52;;;20.90;37.20;;;;;;5075480;28;20546;-59
2021/03/13 08:34:17;;;;;;;0.95;0.50;;;20.80;37.20;;;;;;5075716;28;20155;-59
2021/03/13 08:36:45;;;;;;;2.60;0.60;;;20.90;37.10;;;;;;5075848;28;20036;-59
2021/03/13 08:39:13;;;;;;;1.08;0.43;;;20.90;37.10;;;;;;5075296;28;20469;-58
2021/03/13 08:41:42;;;;;;;0.82;0.30;;;20.90;37.20;;;;;;5075306;28;20020;-59
2021/03/13 08:44:13;;;;;;;1.23;0.40;;;20.90;37.10;;;;;;5074304;28;20404;-59
2021/03/13 08:46:53;;;;;;;1.33;0.38;;;20.90;37.10;;;;;;5090888;28;20067;-59
2021/03/13 08:49:23;;;;;;;1.88;0.35;;;20.90;37.10;;;;;;5073932;28;20028;-59
2021/03/13 08:51:49;;;;;;;0.75;0.35;;;20.90;37.10;;;;;;5073847;28;20496;-59
2021/03/13 08:54:37;;;;;;;1.60;0.45;;;21.00;37.10;;;;;;5075237;28;20128;-60
2021/03/13 08:57:03;;;;;;;0.85;0.40;;;21.00;37.10;;;;;;5075173;28;20027;-59
2021/03/13 08:59:28;;;;;;;1.65;0.50;;;21.00;37.10;;;;;;5075134;28;20032;-59
2021/03/13 09:02:06;;;;;;;0.93;0.30;;;21.00;37.10;;;;;;5074096;28;20029;-59
2021/03/13 09:04:34;;;;;;;1.65;0.32;;;21.00;37.00;;;;;;5075473;28;20028;-59
2021/03/13 09:07:00;;;;;;;1.65;0.30;;;21.00;37.00;;;;;;5078129;28;20020;-58
2021/03/13 09:09:28;;;;;;;1.10;0.35;;;21.00;37.10;;;;;;5074839;28;20044;-59
2021/03/13 09:12:06;;;;;;;1.30;0.60;;;21.00;37.00;;;;;;5076632;28;20537;-59
2021/03/13 09:14:33;;;;;;;2.75;0.50;;;21.00;37.00;;;;;;5074771;28;20038;-59
2021/03/13 09:17:10;;;;;;;0.57;0.28;;;21.00;37.00;;;;;;5074751;28;20094;-59
2021/03/13 09:19:36;;;;;;;0.47;0.28;;;21.00;36.90;;;;;;5074492;28;20041;-59
2021/03/13 09:22:14;;;;;;;1.10;0.30;;;21.00;36.90;;;;;;5074501;28;20112;-59
2021/03/13 09:24:40;;;;;;;3.78;0.47;;;21.10;36.90;;;;;;5074406;28;20025;-59
2021/03/13 09:27:06;;;;;;;1.88;0.47;;;21.10;36.90;;;;;;5074494;28;20060;-58
2021/03/13 09:29:42;;;;;;;1.10;0.50;;;21.10;36.90;;;;;;5074523;28;20071;-59
2021/03/13 09:32:13;;;;;;;1.58;0.50;;;21.10;36.90;;;;;;5074228;28;20059;-58
2021/03/13 09:34:43;;;;;;;1.02;0.40;;;21.10;36.90;;;;;;5074342;28;20044;-58
2021/03/13 09:37:22;;;;;;;0.28;0.20;;;21.10;36.90;;;;;;5073997;28;20104;-61
2021/03/13 09:40:00;;;;;;;1.52;0.47;;;21.10;36.90;;;;;;5073654;28;20036;-58
2021/03/13 09:42:27;;;;;;;1.00;0.32;;;21.10;36.90;;;;;;5072131;28;20369;-59
2021/03/13 09:45:03;;;;;;;1.10;0.40;;;21.10;36.90;;;;;;5073574;28;20031;-60
2021/03/13 09:47:28;;;;;;;2.25;0.75;;;21.10;36.90;;;;;;5074214;28;20027;-59
2021/03/13 09:49:56;;;;;;;0.93;0.50;;;21.10;36.90;;;;;;5073590;28;20103;-59
2021/03/13 09:52:27;;;;;;;1.63;0.50;;;21.20;36.80;;;;;;5073757;28;20036;-60
2021/03/13 09:55:04;;;;;;;1.25;0.35;;;21.20;36.70;;;;;;5073922;28;20029;-59
2021/03/13 09:57:29;;;;;;;3.75;0.70;;;21.20;36.70;;;;;;5073768;28;20030;-60
2021/03/13 09:59:55;;;;;;;1.20;0.50;;;21.20;36.70;;;;;;5073746;28;20020;-58
2021/03/13 10:02:21;;;;;;;3.00;0.63;;;21.20;36.70;;;;;;5073904;28;20468;-58
2021/03/13 10:04:49;;;;;;;1.35;0.30;;;21.20;36.70;;;;;;5073904;28;20025;-58
2021/03/13 10:07:15;;;;;;;1.55;0.40;;;21.20;36.70;;;;;;5073640;28;20492;-58
2021/03/13 10:09:55;;;;;;;3.35;0.52;;;21.20;36.70;;;;;;5073533;28;20025;-58
2021/03/13 10:12:28;;;;;;;1.58;0.52;;;21.20;36.70;;;;;;5072172;28;20077;-58
2021/03/13 10:14:55;;;;;;;2.42;0.68;;;21.20;36.70;;;;;;5073759;28;20024;-59
2021/03/13 10:17:21;;;;;;;1.55;0.60;;;21.20;36.60;;;;;;5073642;28;20017;-59
2021/03/13 10:19:48;;;;;;;0.52;0.40;;;21.30;36.60;;;;;;5073151;28;20055;-58
2021/03/13 10:22:20;;;;;;;0.98;0.40;;;21.30;36.60;;;;;;5074000;28;20020;-58
2021/03/13 10:24:47;;;;;;;1.55;0.50;;;21.30;36.60;;;;;;5073627;28;20081;-59
2021/03/13 10:27:39;;;;;;;1.98;0.60;;;21.40;36.50;;;;;;5073324;28;20021;-60
2021/03/13 10:30:07;;;;;;;1.50;0.50;;;21.40;36.50;;;;;;5070796;28;20044;-60
2021/03/13 10:32:35;;;;;;;2.10;0.60;;;21.40;36.50;;;;;;5073167;28;20043;-59
2021/03/13 10:35:08;;;;;;;1.92;0.60;;;21.40;36.40;;;;;;5073351;28;20099;-60
2021/03/13 10:37:55;;;;;;;2.45;0.60;;;21.50;36.40;;;;;;5073381;28;20491;-59
2021/03/13 10:40:43;;;;;;;2.45;0.70;;;21.50;36.30;;;;;;5073391;28;20047;-59
2021/03/13 10:43:12;;;;;;;1.75;0.47;;;21.50;36.20;;;;;;5073214;28;20020;-59
2021/03/13 10:45:38;;;;;;;1.42;0.40;;;21.50;36.20;;;;;;5073146;28;20020;-59
2021/03/13 10:48:06;;;;;;;1.83;0.50;;;21.50;36.20;;;;;;5073409;28;20033;-59
2021/03/13 10:50:35;;;;;;;1.88;0.65;;;21.50;36.20;;;;;;5076382;28;20028;-59
2021/03/13 10:53:26;;;;;;;2.15;0.60;;;21.50;36.30;;;;;;5076884;28;20048;-59
2021/03/13 10:55:53;;;;;;;2.28;0.68;;;21.50;36.20;;;;;;5073421;28;20025;-59
2021/03/13 10:58:23;;;;;;;2.00;0.30;;;21.50;36.20;;;;;;5073291;28;20460;-59
2021/03/13 11:00:49;;;;;;;1.70;0.50;;;21.50;36.20;;;;;;5072590;28;20079;-59
2021/03/13 11:03:15;;;;;;;1.48;0.40;;;21.50;36.30;;;;;;5073221;28;20027;-60
2021/03/13 11:05:40;;;;;;;2.53;0.55;;;21.50;36.30;;;;;;5073017;28;20476;-59
2021/03/13 11:08:09;;;;;;;1.45;0.60;;;21.40;36.30;;;;;;5073258;28;20052;-60
2021/03/13 11:10:35;;;;;;;1.98;0.70;;;21.40;36.40;;;;;;5071605;28;20029;-59
2021/03/13 11:13:00;;;;;;;1.95;0.40;;;21.40;36.40;;;;;;5072774;28;20039;-59
2021/03/13 11:15:26;;;;;;;2.22;0.80;;;21.40;36.40;;;;;;5073358;28;20036;-59
2021/03/13 11:17:51;;;;;;;2.28;0.50;;;21.40;36.40;;;;;;5073206;28;20085;-59
2021/03/13 11:20:17;;;;;;;1.75;0.52;;;21.40;36.40;;;;;;5073005;28;20031;-59
2021/03/13 11:22:42;;;;;;;1.27;0.45;;;21.40;36.40;;;;;;5072943;28;20052;-59
2021/03/13 11:25:08;;;;;;;3.10;0.73;;;21.40;36.40;;;;;;5075479;28;20032;-60
2021/03/13 11:27:34;;;;;;;3.92;0.65;;;21.40;36.40;;;;;;5075994;28;20399;-60
2021/03/13 11:29:59;;;;;;;0.68;0.40;;;21.40;36.40;;;;;;5076822;28;20035;-60
2021/03/13 11:32:25;;;;;;;1.08;0.40;;;21.30;36.40;;;;;;5076770;28;20070;-60
2021/03/13 11:34:51;;;;;;;1.00;0.40;;;21.30;36.50;;;;;;5076433;28;20031;-60
2021/03/13 11:37:16;;;;;;;3.10;0.75;;;21.30;36.50;;;;;;5076848;28;20028;-60
2021/03/13 11:39:42;;;;;;;2.53;0.60;;;21.30;36.50;;;;;;5076830;28;20051;-60
2021/03/13 11:42:07;;;;;;;3.15;0.70;;;21.20;36.50;;;;;;5076821;28;20032;-60
2021/03/13 11:44:33;;;;;;;1.52;0.60;;;21.20;36.50;;;;;;5076628;28;20024;-60
2021/03/13 11:47:00;;;;;;;2.42;0.65;;;21.20;36.60;;;;;;5076547;28;20487;-60
2021/03/13 11:49:25;;;;;;;2.90;0.60;;;21.30;36.50;;;;;;5076433;28;20016;-60
2021/03/13 11:51:51;;;;;;;1.75;0.65;;;21.20;36.50;;;;;;5076363;28;20029;-59
2021/03/13 11:54:16;;;;;;;2.25;0.70;;;21.30;36.50;;;;;;5076015;28;20024;-59
2021/03/13 11:56:42;;;;;;;1.65;0.60;;;21.30;36.50;;;;;;5076066;28;20028;-60
2021/03/13 11:59:08;;;;;;;2.50;0.60;;;21.40;36.30;;;;;;5075979;28;20039;-59
2021/03/13 12:01:33;;;;;;;1.98;0.77;;;21.40;36.30;;;;;;5081554;28;20035;-60
2021/03/13 12:03:59;;;;;;;2.75;0.75;;;21.50;36.10;;;;;;5084501;28;20035;-59
2021/03/13 12:06:24;;;;;;;2.00;0.55;;;21.50;36.10;;;;;;5083263;28;20116;-59
2021/03/13 12:08:50;;;;;;;2.50;0.60;;;21.50;36.10;;;;;;5076552;28;20067;-58
2021/03/13 12:11:15;;;;;;;3.40;0.73;;;21.50;36.20;;;;;;5076225;28;20067;-58
2021/03/13 12:13:41;;;;;;;3.13;0.60;;;21.50;36.20;;;;;;5076243;28;20269;-58
2021/03/13 12:16:07;;;;;;;2.08;0.68;;;21.50;36.20;;;;;;5076087;28;20023;-59
2021/03/13 12:18:33;;;;;;;2.88;0.63;;;21.50;36.20;;;;;;5075805;28;20051;-59
2021/03/13 12:20:59;;;;;;;2.63;0.60;;;21.50;36.20;;;;;;5091449;28;20348;-59
2021/03/13 12:23:24;;;;;;;3.63;0.85;;;21.50;36.20;;;;;;5075922;28;20028;-59
2021/03/13 12:25:50;;;;;;;3.35;0.73;;;21.40;36.30;;;;;;5077248;28;20310;-59
2021/03/13 12:28:15;;;;;;;1.85;0.55;;;21.50;36.30;;;;;;5078697;28;20075;-59
2021/03/13 12:30:41;;;;;;;2.47;0.50;;;21.40;36.40;;;;;;5075786;28;20035;-59
2021/03/13 12:33:06;;;;;;;3.30;0.77;;;21.40;36.40;;;;;;5075704;28;20031;-58
2021/03/13 12:35:32;;;;;;;2.70;0.75;;;21.30;36.40;;;;;;5074322;28;20388;-58
2021/03/13 12:37:58;;;;;;;1.95;0.57;;;21.30;36.40;;;;;;5075670;28;20086;-59
2021/03/13 12:40:23;;;;;;;2.72;0.60;;;21.30;36.40;;;;;;5075762;28;20024;-59
2021/03/13 12:42:49;;;;;;;1.60;0.47;;;21.30;36.40;;;;;;5075882;28;20116;-59
2021/03/13 12:45:14;;;;;;;3.85;0.90;;;21.30;36.50;;;;;;5075293;28;20051;-59
2021/03/13 12:47:40;;;;;;;1.88;0.70;;;21.30;36.50;;;;;;5075456;28;20020;-59
2021/03/13 12:50:07;;;;;;;3.67;0.90;;;21.30;36.50;;;;;;5075261;28;20438;-59
2021/03/13 12:52:33;;;;;;;1.17;0.47;;;21.30;36.50;;;;;;5075044;28;20403;-59
2021/03/13 12:54:59;;;;;;;4.45;0.88;;;21.30;36.50;;;;;;5075416;28;20104;-60